createdAt,value
2022-08-19T04:41:33.666Z,19.10
2022-08-19T04:44:04.431Z,19.20
2022-08-19T04:46:39.902Z,19.20
2022-08-19T04:49:10.624Z,19.30
2022-08-19T04:51:44.849Z,19.40
2022-08-19T04:54:13.817Z,19.60
2022-08-19T04:56:42.051Z,19.60
2022-08-19T04:59:10.230Z,19.70
2022-08-19T05:01:38.101Z,19.80
2022-08-19T05:04:07.611Z,19.80
2022-08-19T05:06:35.604Z,19.70
2022-08-19T05:09:06.941Z,19.80
2022-08-19T05:11:45.555Z,19.90
2022-08-19T05:14:15.097Z,19.90
2022-08-19T05:16:46.178Z,19.90
2022-08-19T05:19:38.219Z,20.00
2022-08-19T05:22:25.776Z,20.10
2022-08-19T05:25:11.701Z,20.20
2022-08-19T05:27:40.732Z,20.20
2022-08-19T05:30:08.882Z,20.20
2022-08-19T05:32:36.427Z,20.30
2022-08-19T05:35:05.644Z,20.10
2022-08-19T05:37:33.158Z,20.00
2022-08-19T05:40:01.805Z,19.90
2022-08-19T05:42:31.862Z,19.90
2022-08-19T05:44:59.641Z,20.00
2022-08-19T05:47:27.195Z,20.20
2022-08-19T05:49:54.680Z,20.60
2022-08-19T05:52:25.684Z,20.80
2022-08-19T05:54:56.984Z,20.80
2022-08-19T05:57:25.835Z,20.70
2022-08-19T05:59:58.272Z,20.60
2022-08-19T06:02:32.074Z,20.50
2022-08-19T06:04:59.802Z,20.60
2022-08-19T06:07:30.377Z,20.20
2022-08-19T06:10:00.976Z,20.20
2022-08-19T06:12:36.314Z,20.40
2022-08-19T06:15:08.381Z,20.40
2022-08-19T06:17:36.418Z,20.60
2022-08-19T06:20:10.057Z,20.30
2022-08-19T06:22:48.276Z,20.50
2022-08-19T06:25:16.635Z,20.50
2022-08-19T06:28:11.517Z,20.20
2022-08-19T06:30:32.727Z,20.20
2022-08-19T06:33:00.316Z,20.30
2022-08-19T06:35:28.168Z,20.40
2022-08-19T06:37:55.602Z,20.70
2022-08-19T06:40:23.666Z,20.90
2022-08-19T06:42:55.049Z,21.10
2022-08-19T06:45:24.567Z,21.40
2022-08-19T06:47:55.478Z,21.80
2022-08-19T06:50:26.515Z,22.00
2022-08-19T06:52:55.477Z,21.70
2022-08-19T06:55:23.449Z,22.10
2022-08-19T06:57:54.760Z,23.60
2022-08-19T07:00:23.078Z,26.20
2022-08-19T07:02:53.360Z,28.30
2022-08-19T07:05:26.318Z,29.60
2022-08-19T07:07:53.800Z,29.20
2022-08-19T07:10:26.479Z,28.60
2022-08-19T07:12:55.007Z,30.00
2022-08-19T07:15:22.716Z,32.20
2022-08-19T07:17:52.925Z,31.50
2022-08-19T07:20:20.657Z,32.40
2022-08-19T07:22:48.911Z,33.50
2022-08-19T07:25:18.497Z,36.70
2022-08-19T07:27:48.778Z,36.80
2022-08-19T07:30:23.457Z,39.60
2022-08-19T07:33:06.258Z,41.10
2022-08-19T07:35:33.562Z,40.70
2022-08-19T07:38:03.936Z,41.60
2022-08-19T07:40:31.676Z,41.90
2022-08-19T07:42:59.169Z,38.20
2022-08-19T07:45:26.835Z,36.60
2022-08-19T07:47:54.632Z,36.30
2022-08-19T07:50:22.767Z,37.80
2022-08-19T07:52:51.178Z,38.10
2022-08-19T07:55:41.892Z,33.50
2022-08-19T07:58:09.885Z,32.40
2022-08-19T08:00:40.433Z,35.90
2022-08-19T08:03:07.812Z,36.90
2022-08-19T08:05:54.183Z,38.50
2022-08-19T08:08:44.508Z,39.40
2022-08-19T08:11:20.021Z,39.00
2022-08-19T08:14:00.704Z,37.90
2022-08-19T08:16:35.652Z,38.90
2022-08-19T08:19:20.639Z,40.10
2022-08-19T08:21:55.588Z,40.70
2022-08-19T08:24:28.538Z,36.30
2022-08-19T08:26:58.917Z,35.20
2022-08-19T08:29:35.100Z,36.40
2022-08-19T08:32:14.092Z,36.40
2022-08-19T08:34:42.478Z,36.80
2022-08-19T08:37:10.068Z,34.30
2022-08-19T08:39:37.702Z,35.10
2022-08-19T08:42:21.376Z,34.30
2022-08-19T08:45:01.756Z,35.70
2022-08-19T08:47:41.975Z,36.00
2022-08-19T08:50:20.388Z,37.70
2022-08-19T08:52:54.065Z,38.30
2022-08-19T08:55:26.656Z,36.70
2022-08-19T08:58:01.024Z,33.20
2022-08-19T09:00:33.236Z,31.80
2022-08-19T09:03:04.540Z,31.30
2022-08-19T09:05:48.954Z,30.90
2022-08-19T09:08:31.308Z,29.90
2022-08-19T09:10:59.316Z,29.50
2022-08-19T09:14:29.244Z,29.90
2022-08-19T09:17:00.837Z,29.50
2022-08-19T09:19:28.272Z,30.30
2022-08-19T09:22:01.718Z,30.10
2022-08-19T09:24:31.260Z,30.00
2022-08-19T09:26:58.799Z,30.40
2022-08-19T09:29:26.172Z,29.80
2022-08-19T09:31:53.547Z,30.50
2022-08-19T09:34:22.224Z,30.70
2022-08-19T09:36:56.437Z,31.70
2022-08-19T09:39:24.056Z,31.30
2022-08-19T09:41:51.556Z,31.10
2022-08-19T09:44:21.943Z,30.40
2022-08-19T09:46:49.460Z,29.90
2022-08-19T09:49:20.800Z,30.10
2022-08-19T09:51:51.733Z,30.80
2022-08-19T09:54:23.671Z,30.80
2022-08-19T09:56:56.697Z,31.30
2022-08-19T09:59:24.995Z,31.50
2022-08-19T10:01:53.348Z,30.90
2022-08-19T10:04:22.472Z,30.70
2022-08-19T10:06:53.753Z,30.60
2022-08-19T10:09:34.146Z,30.10
2022-08-19T10:12:03.439Z,30.50
2022-08-19T10:14:32.640Z,30.70
2022-08-19T10:17:04.601Z,31.00
2022-08-19T10:19:55.418Z,31.40
2022-08-19T10:22:25.653Z,30.80
2022-08-19T10:24:53.667Z,31.30
2022-08-19T10:27:21.105Z,31.60
2022-08-19T10:29:49.186Z,30.80
2022-08-19T10:32:16.644Z,30.20
2022-08-19T10:34:47.947Z,30.40
2022-08-19T10:37:28.891Z,30.80
2022-08-19T10:39:59.961Z,29.90
2022-08-19T10:42:27.415Z,30.40
2022-08-19T10:44:54.920Z,31.00
2022-08-19T10:47:25.550Z,30.40
2022-08-19T10:50:13.965Z,30.80
2022-08-19T10:52:50.385Z,31.00
2022-08-19T10:55:42.063Z,31.40
2022-08-19T10:58:17.316Z,31.80
2022-08-19T11:00:52.258Z,31.30
2022-08-19T11:03:20.768Z,31.20
2022-08-19T11:05:56.659Z,30.90
2022-08-19T11:08:43.179Z,31.00
2022-08-19T11:11:10.731Z,30.00
2022-08-19T11:13:40.801Z,29.80
2022-08-19T11:16:15.101Z,29.70
2022-08-19T11:18:46.008Z,29.70
2022-08-19T11:21:20.222Z,30.60
2022-08-19T11:23:49.967Z,31.20
2022-08-19T11:26:19.303Z,31.40
2022-08-19T11:28:47.553Z,31.80
2022-08-19T11:31:18.682Z,32.00
2022-08-19T11:33:47.976Z,32.00
2022-08-19T11:36:16.240Z,31.50
2022-08-19T11:38:46.024Z,30.50
2022-08-19T11:41:13.486Z,30.30
2022-08-19T11:43:41.222Z,30.40
2022-08-19T11:46:11.680Z,30.90
2022-08-19T11:48:40.023Z,31.30
2022-08-19T11:51:11.960Z,31.40
2022-08-19T11:53:40.212Z,32.00
2022-08-19T11:56:10.111Z,32.30
2022-08-19T11:58:39.214Z,31.90
2022-08-19T12:01:09.341Z,32.00
2022-08-19T12:03:39.992Z,32.20
2022-08-19T12:06:14.604Z,32.10
2022-08-19T12:08:42.765Z,31.70
2022-08-19T12:11:11.782Z,31.60
2022-08-19T12:13:40.696Z,31.70
2022-08-19T12:16:17.840Z,31.70
2022-08-19T12:18:49.207Z,31.90
2022-08-19T12:21:22.317Z,32.00
2022-08-19T12:23:55.630Z,31.50
2022-08-19T12:26:24.672Z,31.70
2022-08-19T12:28:52.461Z,31.60
2022-08-19T12:31:20.959Z,31.50
2022-08-19T12:33:48.885Z,31.20
2022-08-19T12:36:18.940Z,31.20
2022-08-19T12:38:47.877Z,30.80
2022-08-19T12:41:19.803Z,30.70
2022-08-19T12:43:48.509Z,30.70
2022-08-19T12:46:16.159Z,30.20
2022-08-19T12:48:46.940Z,30.80
2022-08-19T12:51:20.959Z,31.00
2022-08-19T12:53:51.479Z,31.10
2022-08-19T12:56:23.197Z,31.00
2022-08-19T12:58:53.112Z,30.80
2022-08-19T13:01:22.792Z,30.50
2022-08-19T13:03:53.701Z,30.30
2022-08-19T13:06:21.811Z,30.30
2022-08-19T13:08:49.197Z,30.20
2022-08-19T13:11:20.610Z,30.10
2022-08-19T13:13:52.166Z,29.80
2022-08-19T13:16:21.408Z,29.40
2022-08-19T13:18:48.850Z,29.50
2022-08-19T13:21:17.315Z,29.90
2022-08-19T13:23:49.117Z,29.90
2022-08-19T13:26:17.321Z,29.90
2022-08-19T13:29:05.025Z,29.80
2022-08-19T13:31:54.140Z,30.10
2022-08-19T13:34:34.048Z,29.70
2022-08-19T13:37:04.397Z,29.60
2022-08-19T13:39:34.497Z,29.70
2022-08-19T13:42:06.081Z,29.10
2022-08-19T13:44:34.747Z,29.00
2022-08-19T13:47:08.587Z,29.10
2022-08-19T13:49:37.539Z,29.00
2022-08-19T13:52:07.421Z,29.10
2022-08-19T13:54:34.869Z,29.30
2022-08-19T13:57:03.223Z,29.20
2022-08-19T13:59:30.571Z,29.40
2022-08-19T14:02:02.581Z,29.50
2022-08-19T14:04:30.237Z,28.90
2022-08-19T14:06:57.948Z,28.80
2022-08-19T14:09:25.640Z,28.70
2022-08-19T14:11:53.186Z,28.60
2022-08-19T14:14:20.514Z,28.60
2022-08-19T14:16:48.196Z,28.90
2022-08-19T14:19:16.373Z,28.90
2022-08-19T14:21:44.541Z,29.00
2022-08-19T14:24:12.030Z,29.20
2022-08-19T14:26:40.161Z,29.40
2022-08-19T14:29:10.063Z,29.70
2022-08-19T14:31:44.431Z,29.50
2022-08-19T14:34:12.001Z,29.40
2022-08-19T14:36:43.203Z,29.40
2022-08-19T14:39:12.941Z,29.40
2022-08-19T14:41:48.163Z,29.40
2022-08-19T14:44:16.636Z,29.30
2022-08-19T14:46:49.578Z,29.30
2022-08-19T14:49:17.832Z,29.30
2022-08-19T14:51:46.881Z,29.20
2022-08-19T14:54:14.812Z,29.30
2022-08-19T14:56:42.626Z,29.20
2022-08-19T14:59:10.243Z,29.30
2022-08-19T15:01:39.977Z,29.40
2022-08-19T15:04:07.826Z,29.20
2022-08-19T15:06:43.529Z,29.20
2022-08-19T15:09:12.266Z,29.10
2022-08-19T15:11:42.786Z,29.00
2022-08-19T15:14:29.515Z,28.70
2022-08-19T15:16:57.043Z,28.80
2022-08-19T15:19:25.499Z,28.80
2022-08-19T15:21:55.406Z,28.80
2022-08-19T15:24:24.755Z,28.70
2022-08-19T15:26:57.054Z,28.50
2022-08-19T15:29:25.892Z,28.30
2022-08-19T15:31:56.366Z,28.30
2022-08-19T15:34:26.377Z,28.30
2022-08-19T15:36:54.037Z,28.00
2022-08-19T15:39:22.620Z,28.00
2022-08-19T15:41:49.803Z,27.90
2022-08-19T15:44:22.036Z,28.00
2022-08-19T15:46:50.317Z,28.00
2022-08-19T15:49:19.486Z,28.00
2022-08-19T15:51:49.603Z,28.00
2022-08-19T15:54:23.760Z,27.90
2022-08-19T15:57:11.739Z,27.80
2022-08-19T16:00:00.082Z,28.00
2022-08-19T16:02:57.555Z,28.10
2022-08-19T16:05:46.186Z,28.10
2022-08-19T16:08:13.722Z,28.30
2022-08-19T16:10:41.259Z,28.20
2022-08-19T16:13:09.673Z,28.10
2022-08-19T16:15:37.515Z,28.10
2022-08-19T16:18:05.003Z,28.00
2022-08-19T16:20:33.199Z,28.10
2022-08-19T16:23:05.118Z,28.00
2022-08-19T16:25:33.055Z,27.60
2022-08-19T16:28:06.616Z,27.60
2022-08-19T16:30:38.906Z,27.30
2022-08-19T16:33:07.135Z,27.20
2022-08-19T16:35:34.429Z,27.30
2022-08-19T16:38:03.049Z,27.10
2022-08-19T16:40:30.255Z,27.10
2022-08-19T16:42:57.582Z,27.00
2022-08-19T16:45:25.043Z,27.00
2022-08-19T16:47:52.543Z,27.00
2022-08-19T16:50:29.186Z,27.00
2022-08-19T16:53:07.667Z,26.90
2022-08-19T16:55:35.207Z,26.90
2022-08-19T16:58:05.118Z,26.90
2022-08-19T17:00:32.622Z,26.80
2022-08-19T17:03:14.976Z,26.80
2022-08-19T17:05:48.809Z,26.90
2022-08-19T17:08:20.032Z,26.70
2022-08-19T17:11:16.632Z,26.50
2022-08-19T17:13:39.168Z,26.40
2022-08-19T17:19:47.929Z,26.30
2022-08-19T17:22:15.640Z,26.30
2022-08-19T17:24:42.938Z,26.10
2022-08-19T17:27:10.492Z,25.90
2022-08-19T17:29:37.914Z,25.80
2022-08-19T17:32:06.682Z,25.70
2022-08-19T17:34:34.911Z,25.60
2022-08-19T17:37:02.442Z,25.50
2022-08-19T17:39:29.916Z,25.40
2022-08-19T17:42:04.702Z,25.30
2022-08-19T17:44:33.685Z,25.20
2022-08-19T17:47:01.692Z,25.10
2022-08-19T17:49:29.772Z,25.00
2022-08-19T17:52:00.433Z,24.90
2022-08-19T17:54:33.206Z,24.80
2022-08-19T17:57:01.927Z,24.70
2022-08-19T17:59:30.287Z,24.60
2022-08-19T18:01:59.169Z,24.50
2022-08-19T18:04:29.924Z,24.50
2022-08-19T18:06:58.368Z,24.40
2022-08-19T18:09:41.729Z,24.30
2022-08-19T18:12:14.267Z,24.20
2022-08-19T18:14:42.431Z,23.90
2022-08-19T18:17:12.692Z,23.90
2022-08-19T18:19:46.132Z,23.90
2022-08-19T18:22:28.132Z,23.70
2022-08-19T18:24:58.220Z,23.70
2022-08-19T18:27:27.902Z,23.70
2022-08-19T18:29:59.805Z,23.50
2022-08-19T18:32:36.869Z,23.50
2022-08-19T18:35:11.317Z,23.50
2022-08-19T18:37:40.064Z,23.40
2022-08-19T18:40:30.112Z,23.50
2022-08-19T18:43:12.546Z,23.40
2022-08-19T18:46:01.145Z,23.20
2022-08-19T18:48:48.979Z,23.20
2022-08-19T18:51:17.674Z,23.10
2022-08-19T18:53:49.049Z,23.00
2022-08-19T18:56:21.704Z,22.90
2022-08-19T18:58:50.805Z,22.90
2022-08-19T19:01:21.494Z,22.80
2022-08-19T19:03:53.181Z,22.80
2022-08-19T19:06:29.619Z,22.80
2022-08-19T19:08:59.194Z,22.70
2022-08-19T19:11:32.996Z,22.60
2022-08-19T19:14:02.933Z,22.60
2022-08-19T19:16:33.450Z,22.50
2022-08-19T19:19:01.330Z,22.50
2022-08-19T19:21:32.948Z,22.40
2022-08-19T19:24:02.339Z,22.40
2022-08-19T19:26:30.030Z,22.40
2022-08-19T19:28:57.805Z,22.40
2022-08-19T19:31:27.755Z,22.40
2022-08-19T19:33:56.476Z,22.40
2022-08-19T19:36:24.607Z,22.40
2022-08-19T19:38:52.293Z,22.40
2022-08-19T19:41:25.520Z,22.40
2022-08-19T19:44:23.254Z,22.30
2022-08-19T19:46:42.979Z,22.30
2022-08-19T19:49:12.398Z,22.30
2022-08-19T19:51:41.552Z,22.20
2022-08-19T19:54:15.539Z,22.30
2022-08-19T19:56:46.348Z,22.30
2022-08-19T19:59:13.986Z,22.20
2022-08-19T20:01:46.661Z,22.10
2022-08-19T20:04:18.688Z,22.00
2022-08-19T20:06:47.827Z,22.00
2022-08-19T20:09:19.845Z,22.00
2022-08-19T20:11:54.508Z,21.90
2022-08-19T20:14:28.259Z,21.90
2022-08-19T20:16:56.536Z,21.90
2022-08-19T20:19:27.727Z,21.90
2022-08-19T20:21:57.577Z,21.90
2022-08-19T20:24:33.748Z,21.90
2022-08-19T20:27:03.841Z,21.80
2022-08-19T20:29:39.391Z,21.90
2022-08-19T20:32:11.089Z,21.90
2022-08-19T20:34:40.535Z,21.80
2022-08-19T20:37:09.760Z,21.80
2022-08-19T20:39:38.466Z,21.80
2022-08-19T20:42:07.901Z,21.70
2022-08-19T20:44:38.449Z,21.60
2022-08-19T20:47:05.995Z,21.70
2022-08-19T20:49:33.452Z,21.70
2022-08-19T20:52:02.667Z,21.80
2022-08-19T20:54:30.259Z,21.80
2022-08-19T20:56:58.939Z,21.70
2022-08-19T20:59:27.232Z,21.80
2022-08-19T21:01:55.207Z,21.80
2022-08-19T21:04:22.891Z,21.70
2022-08-19T21:06:51.101Z,21.70
2022-08-19T21:09:18.924Z,21.70
2022-08-19T21:11:46.220Z,21.70
2022-08-19T21:14:13.787Z,21.70
2022-08-19T21:16:41.366Z,21.60
2022-08-19T21:19:08.726Z,21.60
2022-08-19T21:21:36.396Z,21.50
2022-08-19T21:24:04.530Z,21.60
2022-08-19T21:26:32.006Z,21.50
2022-08-19T21:28:59.224Z,21.40
2022-08-19T21:31:26.826Z,21.30
2022-08-19T21:33:54.684Z,21.20
2022-08-19T21:36:21.973Z,21.20
2022-08-19T21:38:49.594Z,21.20
2022-08-19T21:41:16.890Z,21.10
2022-08-19T21:43:44.363Z,21.20
2022-08-19T21:46:11.718Z,21.10
2022-08-19T21:48:39.703Z,21.10
2022-08-19T21:51:08.846Z,21.20
2022-08-19T21:53:37.569Z,21.20
2022-08-19T21:56:09.907Z,21.20
2022-08-19T21:58:37.453Z,21.40
2022-08-19T22:01:08.682Z,21.40
2022-08-19T22:03:37.584Z,21.40
2022-08-19T22:06:05.469Z,21.40
2022-08-19T22:08:32.953Z,21.30
2022-08-19T22:11:00.380Z,21.30
2022-08-19T22:13:28.675Z,21.40
2022-08-19T22:15:56.514Z,21.30
2022-08-19T22:18:24.507Z,21.30
2022-08-19T22:20:52.026Z,21.20
2022-08-19T22:23:19.494Z,21.30
2022-08-19T22:25:47.443Z,21.20
2022-08-19T22:28:19.119Z,21.30
2022-08-19T22:30:55.160Z,21.30
2022-08-19T22:33:22.814Z,21.30
2022-08-19T22:35:52.728Z,21.40
2022-08-19T22:38:20.095Z,21.40
2022-08-19T22:40:49.350Z,21.40
2022-08-19T22:43:24.241Z,21.40
2022-08-19T22:45:55.546Z,21.40
2022-08-19T22:48:25.660Z,21.40
2022-08-19T22:51:13.742Z,21.50
2022-08-19T22:53:45.159Z,21.40
2022-08-19T22:56:15.585Z,21.30
2022-08-19T22:58:43.876Z,21.30
2022-08-19T23:01:27.680Z,21.30
2022-08-19T23:04:00.060Z,21.10
2022-08-19T23:06:33.569Z,21.10
2022-08-19T23:09:04.587Z,21.00
2022-08-19T23:11:38.174Z,20.90
2022-08-19T23:14:11.421Z,20.80
2022-08-19T23:16:39.613Z,20.80
2022-08-19T23:19:09.759Z,20.90
2022-08-19T23:21:37.609Z,20.80
2022-08-19T23:24:05.659Z,20.80
2022-08-19T23:26:35.931Z,20.70
2022-08-19T23:29:25.849Z,20.70
2022-08-19T23:31:54.497Z,20.40
2022-08-19T23:34:24.661Z,20.30
2022-08-19T23:36:52.961Z,20.30
2022-08-19T23:39:22.386Z,20.20
2022-08-19T23:41:50.982Z,20.20
2022-08-19T23:44:26.102Z,20.20
2022-08-19T23:46:57.302Z,20.10
2022-08-19T23:49:31.503Z,20.00
2022-08-19T23:52:02.738Z,20.00
2022-08-19T23:54:42.599Z,20.00
2022-08-19T23:57:14.570Z,20.10
2022-08-19T23:59:47.892Z,20.10
